WetterOnline ( http://www.wetteronline.de )

Wetter aktuell Milow

Aktuelles Wetter: Genthin (39m)

6-stündlich | Neueste Meldungen
Ortszeit Temperatur Wetter
Sa, 16.02. 13:00 14.4° C wolkenlos
Sa, 16.02. 7:00 -0.1° C wolkenlos
Sa, 16.02. 1:00 3.6° C wolkenlos
Fr, 15.02. 19:00 4.2° C wolkenlos
Fr, 15.02. 13:00 13.4° C wolkenlos
Fr, 15.02. 7:00 -3.0° C wolkenlos
Fr, 15.02. 1:00 -1.0° C wolkenlos
Do, 14.02. 19:00 4.9° C wolkenlos
Ortszeit Temperatur Wetter
Sa, 16.02. 18:30 6.8° C wolkig
Sa, 16.02. 18:20 6.8° C wolkig
Sa, 16.02. 18:10 7.0° C wolkig
Sa, 16.02. 18:00 9.7° C wolkig
Sa, 16.02. 17:50 9.7° C wolkig
Sa, 16.02. 17:40 10.6° C wolkig
Sa, 16.02. 17:30 12.6° C wolkig
Sa, 16.02. 17:00 14.0° C leicht bewölkt
Sa, 16.02. 16:30 15.1° C fast wolkenlos
Sa, 16.02. 16:00 15.3° C wolkenlos
Sa, 16.02. 15:30 15.5° C wolkenlos
Ortszeit Relative Feuchte Sichtweite
Sa, 16.02. 13:00 35% 55 km
Sa, 16.02. 7:00 90% 24 km
Sa, 16.02. 1:00 77% 40 km
Fr, 15.02. 19:00 77% 55 km
Fr, 15.02. 13:00 30% 50 km
Fr, 15.02. 7:00 96% 11 km
Fr, 15.02. 1:00 94% 26 km
Do, 14.02. 19:00 75% 30 km
Ortszeit Relative Feuchte Sichtweite
Sa, 16.02. 18:30 69% 19 km
Sa, 16.02. 18:20 69% -
Sa, 16.02. 18:10 68% -
Sa, 16.02. 18:00 57% 55 km
Sa, 16.02. 17:50 57% -
Sa, 16.02. 17:40 54% -
Sa, 16.02. 17:30 47% 60 km
Sa, 16.02. 17:00 42% >70 km
Sa, 16.02. 16:30 38% 55 km
Sa, 16.02. 16:00 35% 65 km
Sa, 16.02. 15:30 33% 40 km
Ortszeit Niederschlagsmenge Niederschlagsart
Sa, 16.02. 13:00 0.0 l/m2 in 6 Std. -
Sa, 16.02. 7:00 0.0 l/m2 in 12 Std. -
Sa, 16.02. 1:00 0.0 l/m2 in 6 Std. -
Fr, 15.02. 19:00 0.0 l/m2 in 12 Std. -
Fr, 15.02. 13:00 0.0 l/m2 in 6 Std. -
Fr, 15.02. 7:00 0.0 l/m2 in 12 Std. -
Fr, 15.02. 1:00 0.0 l/m2 in 6 Std. -
Do, 14.02. 19:00 0.0 l/m2 in 12 Std. -
Ortszeit Niederschlagsmenge Niederschlagsart
Sa, 16.02. 18:30 0.0 l/m2 in 1 Std. -
Sa, 16.02. 18:20 keine Meldung -
Sa, 16.02. 18:10 keine Meldung -
Sa, 16.02. 18:00 0.0 l/m2 in 1 Std. -
Sa, 16.02. 17:50 keine Meldung -
Sa, 16.02. 17:40 keine Meldung -
Sa, 16.02. 17:30 0.0 l/m2 in 1 Std. -
Sa, 16.02. 17:00 0.0 l/m2 in 1 Std. -
Sa, 16.02. 16:30 0.0 l/m2 in 1 Std. -
Sa, 16.02. 16:00 0.0 l/m2 in 1 Std. -
Sa, 16.02. 15:30 0.0 l/m2 in 1 Std. -
Ortszeit Stärke Spitze Richtung
km/h Bft. km/h Grad Sektor
Sa, 16.02. 13:00 7 2 22 200° S
Sa, 16.02. 7:00 4 1 18 180° S
Sa, 16.02. 1:00 7 2 15 180° S
Fr, 15.02. 19:00 0 0 11 - -
Fr, 15.02. 13:00 6 1 13 230° SW
Fr, 15.02. 7:00 2 1 6 150° SO
Fr, 15.02. 1:00 2 1 9 180° S
Do, 14.02. 19:00 4 1 22 220° SW
Ortszeit Stärke Spitze Richtung
km/h Bft. km/h Grad Sektor
Sa, 16.02. 18:30 4 1 7 180° S
Sa, 16.02. 18:20 4 1 - 180° S
Sa, 16.02. 18:10 4 1 - 190° S
Sa, 16.02. 18:00 4 1 11 180° S
Sa, 16.02. 17:50 4 1 - 180° S
Sa, 16.02. 17:40 4 1 - 190° S
Sa, 16.02. 17:30 7 2 11 180° S
Sa, 16.02. 17:00 4 1 18 180° S
Sa, 16.02. 16:30 7 2 18 210° SW
Sa, 16.02. 16:00 9 2 20 190° S
Sa, 16.02. 15:30 9 2 20 190° S
Ortszeit Untergrenze Bedeckung Gattung
total tief tief mittel hoch
Sa, 16.02. 13:00 - 0/8 0/8 - - -
Sa, 16.02. 7:00 - 0/8 0/8 - - -
Sa, 16.02. 1:00 - 0/8 0/8 - - -
Fr, 15.02. 19:00 - 0/8 0/8 - - -
Fr, 15.02. 13:00 - 0/8 0/8 - - -
Fr, 15.02. 7:00 - 0/8 0/8 - - -
Fr, 15.02. 1:00 - 0/8 0/8 - - -
Do, 14.02. 19:00 - 0/8 0/8 - - -
Ortszeit Bedeckungsgrad in Achtel und Wolkenuntergrenze
Sa, 16.02. 18:30 8(10500m) 8(10500m)
Sa, 16.02. 18:20 8(10500m) 8(10500m)
Sa, 16.02. 18:10 8(10500m) 8(10500m)
Sa, 16.02. 18:00 8(10500m) 8(10500m)
Sa, 16.02. 17:50 8(10500m)
Sa, 16.02. 17:40 8(10500m)
Sa, 16.02. 17:30 8(10500m)
Sa, 16.02. 17:00 8(10500m) 8(12000m)
Sa, 16.02. 16:30 1(10500m)
Sa, 16.02. 16:00 keine Wolken
Sa, 16.02. 15:30 keine Wolken
Ortszeit Luftdruck NN (hPa) Tendenz (hPa in 3 Std.)
Sa, 16.02. 13:00 1026 - 0,6
Sa, 16.02. 7:00 1027 - 1,0
Sa, 16.02. 1:00 1029 - 1,4
Fr, 15.02. 19:00 1032 - 0,7
Fr, 15.02. 13:00 1034 - 1,0
Fr, 15.02. 7:00 1035 - 0,2
Fr, 15.02. 1:00 1035 + 0,4
Do, 14.02. 19:00 1035 - 0,2
Ortszeit Luftdruck NN (hPa) Tendenz (hPa in 3 Std.)
Sa, 16.02. 18:30 1025 - 0,5
Sa, 16.02. 18:20 1025 keine Meldung
Sa, 16.02. 18:10 1025 keine Meldung
Sa, 16.02. 18:00 1024 - 0,7
Sa, 16.02. 17:50 1024 keine Meldung
Sa, 16.02. 17:40 1024 keine Meldung
Sa, 16.02. 17:30 1024 - 1,0
Sa, 16.02. 17:00 1024 - 1,2
Sa, 16.02. 16:30 1025 - 1,3
Sa, 16.02. 16:00 1025 - 1,2
Sa, 16.02. 15:30 1025 - 1,1
Ortszeit Schneehöhe (cm)
Sa, 16.02. 13:00 0
Sa, 16.02. 7:00 0
Sa, 16.02. 1:00 0
Fr, 15.02. 19:00 0
Fr, 15.02. 13:00 0
Fr, 15.02. 7:00 0
Fr, 15.02. 1:00 0
Do, 14.02. 19:00 0
Ortszeit Schneehöhe (cm)
Sa, 16.02. 18:30 0
Sa, 16.02. 18:20 0
Sa, 16.02. 18:10 0
Sa, 16.02. 18:00 0
Sa, 16.02. 17:50 0
Sa, 16.02. 17:40 0
Sa, 16.02. 17:30 0
Sa, 16.02. 17:00 0
Sa, 16.02. 16:30 0
Sa, 16.02. 16:00 0
Sa, 16.02. 15:30 0
Link zu dieser Seite / Seite empfehlen

Das Wetter in ...